sensor_id;sensor_type;location;lat;lon;timestamp;pressure;altitude;pressure_sealevel;temperature;humidity
70250;BME280;57644;48.416;-123.374;2023-02-22T00:01:39;99771.25;;;0.74;91.12
70250;BME280;57644;48.416;-123.374;2023-02-22T00:04:10;99773.04;;;0.73;90.62
70250;BME280;57644;48.416;-123.374;2023-02-22T00:06:40;99769.21;;;0.73;89.95
70250;BME280;57644;48.416;-123.374;2023-02-22T00:09:11;99766.83;;;0.72;90.05
70250;BME280;57644;48.416;-123.374;2023-02-22T00:11:47;99768.09;;;0.74;88.43
70250;BME280;57644;48.416;-123.374;2023-02-22T00:14:13;99765.18;;;0.77;87.51
70250;BME280;57644;48.416;-123.374;2023-02-22T00:16:42;99764.79;;;0.81;86.21
70250;BME280;57644;48.416;-123.374;2023-02-22T00:19:13;99761.69;;;0.81;85.29
70250;BME280;57644;48.416;-123.374;2023-02-22T00:21:43;99760.12;;;0.72;83.23
70250;BME280;57644;48.416;-123.374;2023-02-22T00:24:13;99758.90;;;0.75;84.03
70250;BME280;57644;48.416;-123.374;2023-02-22T00:26:44;99765.14;;;0.79;84.98
70250;BME280;57644;48.416;-123.374;2023-02-22T00:29:15;99770.69;;;0.72;82.54
70250;BME280;57644;48.416;-123.374;2023-02-22T00:31:45;99769.99;;;0.68;82.70
70250;BME280;57644;48.416;-123.374;2023-02-22T00:34:15;99767.76;;;0.61;82.18
70250;BME280;57644;48.416;-123.374;2023-02-22T00:36:46;99766.78;;;0.65;83.51
70250;BME280;57644;48.416;-123.374;2023-02-22T00:39:17;99768.68;;;0.66;84.41
70250;BME280;57644;48.416;-123.374;2023-02-22T00:41:47;99767.64;;;0.65;85.00
70250;BME280;57644;48.416;-123.374;2023-02-22T00:44:17;99770.34;;;0.53;87.42
70250;BME280;57644;48.416;-123.374;2023-02-22T00:46:48;99772.20;;;0.48;90.90
70250;BME280;57644;48.416;-123.374;2023-02-22T00:49:18;99771.40;;;0.27;94.32
70250;BME280;57644;48.416;-123.374;2023-02-22T00:51:49;99767.98;;;0.29;94.61
70250;BME280;57644;48.416;-123.374;2023-02-22T00:54:24;99768.74;;;0.36;94.57
70250;BME280;57644;48.416;-123.374;2023-02-22T00:56:49;99768.19;;;0.39;94.35
70250;BME280;57644;48.416;-123.374;2023-02-22T00:59:20;99771.19;;;0.31;93.42
70250;BME280;57644;48.416;-123.374;2023-02-22T01:01:51;99774.68;;;0.27;93.25
70250;BME280;57644;48.416;-123.374;2023-02-22T01:04:21;99773.69;;;0.28;92.77
70250;BME280;57644;48.416;-123.374;2023-02-22T01:06:51;99774.38;;;0.22;92.53
70250;BME280;57644;48.416;-123.374;2023-02-22T01:09:22;99776.27;;;0.14;92.62
70250;BME280;57644;48.416;-123.374;2023-02-22T01:11:53;99777.48;;;0.16;92.74
70250;BME280;57644;48.416;-123.374;2023-02-22T01:14:24;99781.17;;;0.20;92.19
70250;BME280;57644;48.416;-123.374;2023-02-22T01:16:55;99779.61;;;0.19;92.09
70250;BME280;57644;48.416;-123.374;2023-02-22T01:19:24;99778.68;;;0.18;91.79
70250;BME280;57644;48.416;-123.374;2023-02-22T01:21:54;99775.54;;;0.02;91.77
70250;BME280;57644;48.416;-123.374;2023-02-22T01:24:25;99776.25;;;-0.01;92.15
70250;BME280;57644;48.416;-123.374;2023-02-22T01:26:55;99778.50;;;-0.17;92.75
70250;BME280;57644;48.416;-123.374;2023-02-22T01:29:26;99784.29;;;-0.11;93.13
70250;BME280;57644;48.416;-123.374;2023-02-22T01:31:56;99784.69;;;-0.12;93.62
70250;BME280;57644;48.416;-123.374;2023-02-22T01:34:27;99783.65;;;-0.13;93.85
70250;BME280;57644;48.416;-123.374;2023-02-22T01:36:57;99783.53;;;-0.10;94.29
70250;BME280;57644;48.416;-123.374;2023-02-22T01:39:28;99787.75;;;-0.14;94.63
70250;BME280;57644;48.416;-123.374;2023-02-22T01:41:58;99789.63;;;-0.41;95.31
70250;BME280;57644;48.416;-123.374;2023-02-22T01:44:31;99790.85;;;-0.39;95.08
70250;BME280;57644;48.416;-123.374;2023-02-22T01:47:01;99794.01;;;-0.46;95.55
70250;BME280;57644;48.416;-123.374;2023-02-22T01:49:32;99793.54;;;-0.48;96.40
70250;BME280;57644;48.416;-123.374;2023-02-22T01:52:03;99794.22;;;-0.48;97.13
70250;BME280;57644;48.416;-123.374;2023-02-22T01:54:32;99791.96;;;-0.48;96.40
70250;BME280;57644;48.416;-123.374;2023-02-22T01:57:05;99792.39;;;-0.52;96.07
70250;BME280;57644;48.416;-123.374;2023-02-22T01:59:33;99791.92;;;-0.62;96.42
70250;BME280;57644;48.416;-123.374;2023-02-22T02:02:02;99794.68;;;-0.59;96.61
70250;BME280;57644;48.416;-123.374;2023-02-22T02:04:33;99796.98;;;-0.55;96.73
70250;BME280;57644;48.416;-123.374;2023-02-22T02:07:06;99798.42;;;-0.55;96.91
70250;BME280;57644;48.416;-123.374;2023-02-22T02:09:37;99802.01;;;-0.54;96.90
70250;BME280;57644;48.416;-123.374;2023-02-22T02:12:05;99804.21;;;-0.58;97.33
70250;BME280;57644;48.416;-123.374;2023-02-22T02:14:35;99805.35;;;-0.62;97.52
70250;BME280;57644;48.416;-123.374;2023-02-22T02:17:05;99807.22;;;-0.66;97.70
70250;BME280;57644;48.416;-123.374;2023-02-22T02:19:43;99808.86;;;-0.74;97.85
70250;BME280;57644;48.416;-123.374;2023-02-22T02:27:11;99812.55;;;-0.84;100.00
70250;BME280;57644;48.416;-123.374;2023-02-22T02:29:50;99812.83;;;-0.78;100.00
70250;BME280;57644;48.416;-123.374;2023-02-22T02:32:19;99813.68;;;-0.76;100.00
70250;BME280;57644;48.416;-123.374;2023-02-22T02:34:45;99816.74;;;-0.73;100.00
70250;BME280;57644;48.416;-123.374;2023-02-22T02:37:13;99819.99;;;-0.79;100.00
70250;BME280;57644;48.416;-123.374;2023-02-22T02:39:44;99821.49;;;-0.75;100.00
70250;BME280;57644;48.416;-123.374;2023-02-22T02:42:14;99823.65;;;-0.71;100.00
70250;BME280;57644;48.416;-123.374;2023-02-22T02:44:43;99820.93;;;-0.71;100.00
70250;BME280;57644;48.416;-123.374;2023-02-22T02:47:13;99822.09;;;-0.82;100.00
70250;BME280;57644;48.416;-123.374;2023-02-22T02:49:47;99820.24;;;-1.08;100.00
70250;BME280;57644;48.416;-123.374;2023-02-22T02:52:12;99818.69;;;-1.11;100.00
70250;BME280;57644;48.416;-123.374;2023-02-22T02:54:42;99816.41;;;-1.06;100.00
70250;BME280;57644;48.416;-123.374;2023-02-22T02:57:12;99815.48;;;-0.93;100.00
70250;BME280;57644;48.416;-123.374;2023-02-22T02:59:42;99817.19;;;-0.89;100.00
70250;BME280;57644;48.416;-123.374;2023-02-22T03:02:26;99815.38;;;-0.90;100.00
70250;BME280;57644;48.416;-123.374;2023-02-22T03:04:54;99815.07;;;-1.00;100.00
70250;BME280;57644;48.416;-123.374;2023-02-22T03:07:25;99820.59;;;-1.01;100.00
70250;BME280;57644;48.416;-123.374;2023-02-22T03:09:53;99820.22;;;-0.96;100.00
70250;BME280;57644;48.416;-123.374;2023-02-22T03:12:24;99821.42;;;-0.99;100.00
70250;BME280;57644;48.416;-123.374;2023-02-22T03:14:54;99820.28;;;-0.99;100.00
70250;BME280;57644;48.416;-123.374;2023-02-22T03:17:22;99822.56;;;-0.88;100.00
70250;BME280;57644;48.416;-123.374;2023-02-22T03:19:52;99822.99;;;-0.84;100.00
70250;BME280;57644;48.416;-123.374;2023-02-22T03:22:21;99824.46;;;-0.87;100.00
70250;BME280;57644;48.416;-123.374;2023-02-22T03:24:52;99825.21;;;-0.87;100.00
70250;BME280;57644;48.416;-123.374;2023-02-22T03:27:21;99822.85;;;-0.85;100.00
70250;BME280;57644;48.416;-123.374;2023-02-22T03:29:51;99824.37;;;-0.87;100.00
70250;BME280;57644;48.416;-123.374;2023-02-22T03:32:22;99823.26;;;-0.79;100.00
70250;BME280;57644;48.416;-123.374;2023-02-22T03:34:53;99824.87;;;-0.74;100.00
70250;BME280;57644;48.416;-123.374;2023-02-22T03:37:22;99823.62;;;-0.75;100.00
70250;BME280;57644;48.416;-123.374;2023-02-22T03:39:52;99825.71;;;-0.78;100.00
70250;BME280;57644;48.416;-123.374;2023-02-22T03:42:22;99824.82;;;-0.82;100.00
70250;BME280;57644;48.416;-123.374;2023-02-22T03:44:52;99826.02;;;-0.84;100.00
70250;BME280;57644;48.416;-123.374;2023-02-22T03:47:27;99827.90;;;-0.82;100.00
70250;BME280;57644;48.416;-123.374;2023-02-22T03:49:56;99828.30;;;-0.82;100.00
70250;BME280;57644;48.416;-123.374;2023-02-22T03:52:23;99822.84;;;-0.92;100.00
70250;BME280;57644;48.416;-123.374;2023-02-22T03:54:54;99819.94;;;-0.94;100.00
70250;BME280;57644;48.416;-123.374;2023-02-22T03:57:27;99821.68;;;-1.02;100.00
70250;BME280;57644;48.416;-123.374;2023-02-22T03:59:55;99821.78;;;-0.96;100.00
70250;BME280;57644;48.416;-123.374;2023-02-22T04:02:26;99819.59;;;-1.02;100.00
70250;BME280;57644;48.416;-123.374;2023-02-22T04:04:55;99820.81;;;-0.96;100.00
70250;BME280;57644;48.416;-123.374;2023-02-22T04:07:26;99819.99;;;-0.95;100.00
70250;BME280;57644;48.416;-123.374;2023-02-22T04:09:57;99819.03;;;-0.95;100.00
70250;BME280;57644;48.416;-123.374;2023-02-22T04:12:27;99814.29;;;-1.18;100.00
70250;BME280;57644;48.416;-123.374;2023-02-22T04:14:58;99814.64;;;-1.11;100.00
70250;BME280;57644;48.416;-123.374;2023-02-22T04:17:28;99814.50;;;-1.08;100.00
70250;BME280;57644;48.416;-123.374;2023-02-22T04:19:59;99824.29;;;-1.12;100.00
70250;BME280;57644;48.416;-123.374;2023-02-22T04:22:29;99829.22;;;-1.37;100.00
70250;BME280;57644;48.416;-123.374;2023-02-22T04:25:00;99836.56;;;-1.38;100.00
70250;BME280;57644;48.416;-123.374;2023-02-22T04:27:30;99841.11;;;-1.83;100.00
70250;BME280;57644;48.416;-123.374;2023-02-22T04:30:01;99842.00;;;-1.70;100.00
70250;BME280;57644;48.416;-123.374;2023-02-22T04:32:31;99837.36;;;-1.67;100.00
70250;BME280;57644;48.416;-123.374;2023-02-22T04:35:04;99839.97;;;-1.51;100.00
70250;BME280;57644;48.416;-123.374;2023-02-22T04:37:33;99841.11;;;-1.41;100.00
70250;BME280;57644;48.416;-123.374;2023-02-22T04:40:05;99846.99;;;-1.44;100.00
70250;BME280;57644;48.416;-123.374;2023-02-22T04:42:34;99849.36;;;-1.47;100.00
70250;BME280;57644;48.416;-123.374;2023-02-22T04:45:08;99849.58;;;-1.43;100.00
70250;BME280;57644;48.416;-123.374;2023-02-22T04:47:35;99859.54;;;-1.45;100.00
70250;BME280;57644;48.416;-123.374;2023-02-22T04:50:07;99861.77;;;-1.92;100.00
70250;BME280;57644;48.416;-123.374;2023-02-22T04:52:36;99864.53;;;-1.96;100.00
70250;BME280;57644;48.416;-123.374;2023-02-22T04:55:07;99865.82;;;-1.91;100.00
70250;BME280;57644;48.416;-123.374;2023-02-22T04:57:37;99866.98;;;-2.01;100.00
70250;BME280;57644;48.416;-123.374;2023-02-22T05:00:10;99870.87;;;-2.13;99.44
70250;BME280;57644;48.416;-123.374;2023-02-22T05:02:38;99875.31;;;-2.27;95.46
70250;BME280;57644;48.416;-123.374;2023-02-22T05:05:08;99877.02;;;-2.26;94.85
70250;BME280;57644;48.416;-123.374;2023-02-22T05:07:39;99880.14;;;-2.34;93.01
70250;BME280;57644;48.416;-123.374;2023-02-22T05:10:10;99882.48;;;-2.33;93.49
70250;BME280;57644;48.416;-123.374;2023-02-22T05:12:40;99884.63;;;-2.37;91.35
70250;BME280;57644;48.416;-123.374;2023-02-22T05:15:16;99885.58;;;-2.36;90.15
70250;BME280;57644;48.416;-123.374;2023-02-22T05:17:41;99889.27;;;-2.73;88.46
70250;BME280;57644;48.416;-123.374;2023-02-22T05:20:21;99895.55;;;-2.52;88.89
70250;BME280;57644;48.416;-123.374;2023-02-22T05:22:42;99897.46;;;-2.55;86.11
70250;BME280;57644;48.416;-123.374;2023-02-22T05:25:13;99899.17;;;-2.49;86.99
70250;BME280;57644;48.416;-123.374;2023-02-22T05:27:44;99900.27;;;-2.51;86.25
70250;BME280;57644;48.416;-123.374;2023-02-22T05:30:15;99901.91;;;-2.51;85.67
70250;BME280;57644;48.416;-123.374;2023-02-22T05:32:45;99903.38;;;-2.60;84.65
70250;BME280;57644;48.416;-123.374;2023-02-22T05:35:16;99910.93;;;-2.51;83.51
70250;BME280;57644;48.416;-123.374;2023-02-22T05:37:46;99913.09;;;-2.67;82.19
70250;BME280;57644;48.416;-123.374;2023-02-22T05:40:18;99921.02;;;-2.68;83.04
70250;BME280;57644;48.416;-123.374;2023-02-22T05:42:47;99925.83;;;-2.60;85.06
70250;BME280;57644;48.416;-123.374;2023-02-22T05:45:20;99933.45;;;-2.65;86.49
70250;BME280;57644;48.416;-123.374;2023-02-22T05:47:48;99945.08;;;-2.59;87.81
70250;BME280;57644;48.416;-123.374;2023-02-22T05:50:19;99944.99;;;-2.60;88.54
70250;BME280;57644;48.416;-123.374;2023-02-22T05:52:49;99948.65;;;-2.86;91.91
70250;BME280;57644;48.416;-123.374;2023-02-22T05:55:22;99950.29;;;-2.84;94.22
70250;BME280;57644;48.416;-123.374;2023-02-22T05:57:50;99954.29;;;-2.77;94.86
70250;BME280;57644;48.416;-123.374;2023-02-22T06:00:23;99961.51;;;-2.97;96.80
70250;BME280;57644;48.416;-123.374;2023-02-22T06:02:56;99964.58;;;-2.97;98.20
70250;BME280;57644;48.416;-123.374;2023-02-22T06:05:22;99968.86;;;-3.12;99.55
70250;BME280;57644;48.416;-123.374;2023-02-22T06:07:53;99971.94;;;-3.37;100.00
70250;BME280;57644;48.416;-123.374;2023-02-22T06:10:23;99977.36;;;-3.26;100.00
70250;BME280;57644;48.416;-123.374;2023-02-22T06:12:55;99988.38;;;-3.50;100.00
70250;BME280;57644;48.416;-123.374;2023-02-22T06:15:25;99989.47;;;-3.48;100.00
70250;BME280;57644;48.416;-123.374;2023-02-22T06:17:56;99997.51;;;-3.87;100.00
70250;BME280;57644;48.416;-123.374;2023-02-22T06:20:27;100003.55;;;-3.67;100.00
70250;BME280;57644;48.416;-123.374;2023-02-22T06:22:57;100009.37;;;-3.61;100.00
70250;BME280;57644;48.416;-123.374;2023-02-22T06:25:28;100013.02;;;-3.78;100.00
70250;BME280;57644;48.416;-123.374;2023-02-22T06:27:58;100017.37;;;-3.85;100.00
70250;BME280;57644;48.416;-123.374;2023-02-22T06:30:29;100020.68;;;-4.29;100.00
70250;BME280;57644;48.416;-123.374;2023-02-22T06:32:58;100025.54;;;-4.09;100.00
70250;BME280;57644;48.416;-123.374;2023-02-22T06:35:29;100031.21;;;-4.03;100.00
70250;BME280;57644;48.416;-123.374;2023-02-22T06:37:59;100029.57;;;-4.04;100.00
70250;BME280;57644;48.416;-123.374;2023-02-22T06:40:29;100026.79;;;-4.02;100.00
70250;BME280;57644;48.416;-123.374;2023-02-22T06:43:01;100029.94;;;-4.19;100.00
70250;BME280;57644;48.416;-123.374;2023-02-22T06:45:31;100027.85;;;-4.03;100.00
70250;BME280;57644;48.416;-123.374;2023-02-22T06:48:01;100031.88;;;-4.34;95.27
70250;BME280;57644;48.416;-123.374;2023-02-22T06:50:33;100030.43;;;-4.39;92.72
70250;BME280;57644;48.416;-123.374;2023-02-22T06:53:03;100036.33;;;-4.42;88.11
70250;BME280;57644;48.416;-123.374;2023-02-22T06:55:34;100039.72;;;-4.68;82.47
70250;BME280;57644;48.416;-123.374;2023-02-22T06:58:05;100039.10;;;-4.63;79.75
70250;BME280;57644;48.416;-123.374;2023-02-22T07:00:35;100044.26;;;-4.71;78.90
70250;BME280;57644;48.416;-123.374;2023-02-22T07:03:05;100048.63;;;-4.93;75.75
70250;BME280;57644;48.416;-123.374;2023-02-22T07:05:36;100047.87;;;-4.71;76.77
70250;BME280;57644;48.416;-123.374;2023-02-22T07:08:07;100050.99;;;-5.07;77.40
70250;BME280;57644;48.416;-123.374;2023-02-22T07:10:38;100045.52;;;-5.20;74.23
70250;BME280;57644;48.416;-123.374;2023-02-22T07:13:08;100049.16;;;-5.14;74.73
70250;BME280;57644;48.416;-123.374;2023-02-22T07:15:38;100042.51;;;-5.11;74.11
70250;BME280;57644;48.416;-123.374;2023-02-22T07:18:09;100044.89;;;-5.20;73.56
70250;BME280;57644;48.416;-123.374;2023-02-22T07:20:39;100050.93;;;-4.98;72.92
70250;BME280;57644;48.416;-123.374;2023-02-22T07:23:13;100056.25;;;-5.08;71.58
70250;BME280;57644;48.416;-123.374;2023-02-22T07:25:41;100054.76;;;-5.06;72.63
70250;BME280;57644;48.416;-123.374;2023-02-22T07:28:11;100066.14;;;-5.24;72.27
70250;BME280;57644;48.416;-123.374;2023-02-22T07:30:42;100065.61;;;-5.11;72.23
70250;BME280;57644;48.416;-123.374;2023-02-22T07:33:13;100067.79;;;-5.19;70.68
70250;BME280;57644;48.416;-123.374;2023-02-22T07:35:45;100073.73;;;-5.18;70.52
70250;BME280;57644;48.416;-123.374;2023-02-22T07:38:18;100078.54;;;-5.39;68.64
70250;BME280;57644;48.416;-123.374;2023-02-22T07:40:45;100083.14;;;-5.15;70.13
70250;BME280;57644;48.416;-123.374;2023-02-22T07:43:17;100079.64;;;-5.49;69.45
70250;BME280;57644;48.416;-123.374;2023-02-22T07:45:47;100078.42;;;-5.60;69.60
70250;BME280;57644;48.416;-123.374;2023-02-22T07:48:17;100078.87;;;-5.32;69.57
70250;BME280;57644;48.416;-123.374;2023-02-22T07:50:47;100084.39;;;-5.71;66.70
70250;BME280;57644;48.416;-123.374;2023-02-22T07:53:19;100089.26;;;-5.70;65.71
70250;BME280;57644;48.416;-123.374;2023-02-22T07:55:48;100092.06;;;-5.64;66.16
70250;BME280;57644;48.416;-123.374;2023-02-22T07:58:21;100096.29;;;-5.71;65.99
70250;BME280;57644;48.416;-123.374;2023-02-22T08:00:49;100094.03;;;-6.09;65.47
70250;BME280;57644;48.416;-123.374;2023-02-22T08:03:22;100097.38;;;-5.65;67.05
70250;BME280;57644;48.416;-123.374;2023-02-22T08:05:52;100099.08;;;-5.85;64.60
70250;BME280;57644;48.416;-123.374;2023-02-22T08:08:22;100098.16;;;-5.54;65.99
70250;BME280;57644;48.416;-123.374;2023-02-22T08:10:52;100096.36;;;-5.83;64.32
70250;BME280;57644;48.416;-123.374;2023-02-22T08:13:23;100095.66;;;-6.24;64.47
70250;BME280;57644;48.416;-123.374;2023-02-22T08:15:54;100095.21;;;-6.18;65.15
70250;BME280;57644;48.416;-123.374;2023-02-22T08:18:24;100095.01;;;-6.09;64.66
70250;BME280;57644;48.416;-123.374;2023-02-22T08:20:54;100102.01;;;-5.84;65.26
70250;BME280;57644;48.416;-123.374;2023-02-22T08:23:25;100111.15;;;-5.81;65.51
70250;BME280;57644;48.416;-123.374;2023-02-22T08:25:56;100106.52;;;-5.76;65.19
70250;BME280;57644;48.416;-123.374;2023-02-22T08:28:26;100104.28;;;-5.94;65.39
70250;BME280;57644;48.416;-123.374;2023-02-22T08:30:57;100105.30;;;-6.02;64.41
70250;BME280;57644;48.416;-123.374;2023-02-22T08:33:27;100104.04;;;-6.03;64.08
70250;BME280;57644;48.416;-123.374;2023-02-22T08:35:58;100104.23;;;-5.92;64.33
70250;BME280;57644;48.416;-123.374;2023-02-22T08:38:30;100096.03;;;-6.14;63.71
70250;BME280;57644;48.416;-123.374;2023-02-22T08:40:59;100098.17;;;-6.25;63.13
70250;BME280;57644;48.416;-123.374;2023-02-22T08:43:30;100096.03;;;-6.45;63.49
70250;BME280;57644;48.416;-123.374;2023-02-22T08:46:00;100106.26;;;-6.39;63.20
70250;BME280;57644;48.416;-123.374;2023-02-22T08:48:31;100086.12;;;-6.60;63.11
70250;BME280;57644;48.416;-123.374;2023-02-22T08:51:02;100093.34;;;-6.34;63.22
70250;BME280;57644;48.416;-123.374;2023-02-22T08:53:32;100102.10;;;-6.32;63.27
70250;BME280;57644;48.416;-123.374;2023-02-22T08:56:03;100106.95;;;-6.14;62.87
70250;BME280;57644;48.416;-123.374;2023-02-22T08:58:33;100101.44;;;-5.99;62.15
70250;BME280;57644;48.416;-123.374;2023-02-22T09:01:04;100113.38;;;-6.29;59.92
70250;BME280;57644;48.416;-123.374;2023-02-22T09:03:34;100104.87;;;-6.43;59.83
70250;BME280;57644;48.416;-123.374;2023-02-22T09:06:05;100104.54;;;-6.86;60.64
70250;BME280;57644;48.416;-123.374;2023-02-22T09:08:36;100110.52;;;-6.62;61.05
70250;BME280;57644;48.416;-123.374;2023-02-22T09:11:06;100114.82;;;-6.49;61.13
70250;BME280;57644;48.416;-123.374;2023-02-22T09:13:37;100110.54;;;-6.84;60.67
70250;BME280;57644;48.416;-123.374;2023-02-22T09:16:07;100123.73;;;-6.93;60.12
70250;BME280;57644;48.416;-123.374;2023-02-22T09:18:38;100118.83;;;-7.09;60.15
70250;BME280;57644;48.416;-123.374;2023-02-22T09:21:11;100118.00;;;-6.99;60.10
70250;BME280;57644;48.416;-123.374;2023-02-22T09:23:39;100125.93;;;-6.71;60.91
70250;BME280;57644;48.416;-123.374;2023-02-22T09:26:10;100108.27;;;-6.82;60.87
70250;BME280;57644;48.416;-123.374;2023-02-22T09:28:40;100118.03;;;-6.77;60.17
70250;BME280;57644;48.416;-123.374;2023-02-22T09:31:13;100110.87;;;-6.80;60.34
70250;BME280;57644;48.416;-123.374;2023-02-22T09:33:42;100106.95;;;-6.65;59.97
70250;BME280;57644;48.416;-123.374;2023-02-22T09:36:12;100109.53;;;-6.91;60.21
70250;BME280;57644;48.416;-123.374;2023-02-22T09:38:43;100099.32;;;-6.91;60.08
70250;BME280;57644;48.416;-123.374;2023-02-22T09:41:19;100109.36;;;-7.08;60.45
70250;BME280;57644;48.416;-123.374;2023-02-22T09:43:48;100108.30;;;-6.98;60.84
70250;BME280;57644;48.416;-123.374;2023-02-22T09:46:24;100104.89;;;-7.16;60.86
70250;BME280;57644;48.416;-123.374;2023-02-22T09:48:57;100118.90;;;-7.23;61.18
70250;BME280;57644;48.416;-123.374;2023-02-22T09:51:18;100113.96;;;-6.94;61.72
70250;BME280;57644;48.416;-123.374;2023-02-22T09:53:50;100123.87;;;-7.10;60.16
70250;BME280;57644;48.416;-123.374;2023-02-22T09:56:20;100116.56;;;-7.02;60.17
70250;BME280;57644;48.416;-123.374;2023-02-22T09:58:51;100126.51;;;-7.10;60.36
70250;BME280;57644;48.416;-123.374;2023-02-22T10:01:23;100129.22;;;-7.50;60.08
70250;BME280;57644;48.416;-123.374;2023-02-22T10:03:51;100122.38;;;-7.14;59.01
70250;BME280;57644;48.416;-123.374;2023-02-22T10:06:22;100131.63;;;-7.29;58.97
70250;BME280;57644;48.416;-123.374;2023-02-22T10:08:52;100137.54;;;-7.15;58.79
70250;BME280;57644;48.416;-123.374;2023-02-22T10:11:33;100133.02;;;-7.22;59.28
70250;BME280;57644;48.416;-123.374;2023-02-22T10:13:57;100134.95;;;-7.07;59.41
70250;BME280;57644;48.416;-123.374;2023-02-22T10:16:28;100132.63;;;-7.28;58.29
70250;BME280;57644;48.416;-123.374;2023-02-22T10:19:04;100124.83;;;-7.47;58.00
70250;BME280;57644;48.416;-123.374;2023-02-22T10:21:36;100138.02;;;-7.60;58.10
70250;BME280;57644;48.416;-123.374;2023-02-22T10:24:01;100127.82;;;-7.59;57.82
70250;BME280;57644;48.416;-123.374;2023-02-22T10:26:27;100131.05;;;-7.48;57.96
70250;BME280;57644;48.416;-123.374;2023-02-22T10:29:00;100129.04;;;-7.33;58.67
70250;BME280;57644;48.416;-123.374;2023-02-22T10:31:30;100132.78;;;-7.34;59.44
70250;BME280;57644;48.416;-123.374;2023-02-22T10:34:00;100139.76;;;-7.72;59.79
70250;BME280;57644;48.416;-123.374;2023-02-22T10:36:28;100142.13;;;-7.44;59.50
70250;BME280;57644;48.416;-123.374;2023-02-22T10:39:01;100140.38;;;-7.61;60.26
70250;BME280;57644;48.416;-123.374;2023-02-22T10:41:31;100137.01;;;-7.24;60.48
70250;BME280;57644;48.416;-123.374;2023-02-22T10:44:01;100141.54;;;-7.46;59.70
70250;BME280;57644;48.416;-123.374;2023-02-22T10:46:31;100139.12;;;-7.58;59.20
70250;BME280;57644;48.416;-123.374;2023-02-22T10:49:03;100136.44;;;-7.43;58.71
70250;BME280;57644;48.416;-123.374;2023-02-22T10:51:32;100155.50;;;-7.77;58.31
70250;BME280;57644;48.416;-123.374;2023-02-22T10:56:32;100150.53;;;-7.36;57.78
70250;BME280;57644;48.416;-123.374;2023-02-22T10:59:05;100151.13;;;-7.45;58.11
70250;BME280;57644;48.416;-123.374;2023-02-22T11:01:36;100153.30;;;-7.99;59.15
70250;BME280;57644;48.416;-123.374;2023-02-22T11:04:11;100155.53;;;-7.94;58.63
70250;BME280;57644;48.416;-123.374;2023-02-22T11:06:36;100152.54;;;-7.69;58.38
70250;BME280;57644;48.416;-123.374;2023-02-22T11:09:09;100152.82;;;-7.77;58.09
70250;BME280;57644;48.416;-123.374;2023-02-22T11:11:38;100155.54;;;-7.66;57.70
70250;BME280;57644;48.416;-123.374;2023-02-22T11:14:08;100162.23;;;-7.86;56.84
70250;BME280;57644;48.416;-123.374;2023-02-22T11:16:40;100159.89;;;-8.01;57.78
70250;BME280;57644;48.416;-123.374;2023-02-22T11:19:17;100159.36;;;-7.89;58.53
70250;BME280;57644;48.416;-123.374;2023-02-22T11:21:39;100165.89;;;-8.16;58.50
70250;BME280;57644;48.416;-123.374;2023-02-22T11:24:12;100170.67;;;-8.23;58.65
70250;BME280;57644;48.416;-123.374;2023-02-22T11:26:42;100172.07;;;-7.84;58.72
70250;BME280;57644;48.416;-123.374;2023-02-22T11:29:18;100180.61;;;-7.56;58.88
70250;BME280;57644;48.416;-123.374;2023-02-22T11:31:44;100167.49;;;-8.00;58.66
70250;BME280;57644;48.416;-123.374;2023-02-22T11:36:43;100181.85;;;-8.00;58.48
70250;BME280;57644;48.416;-123.374;2023-02-22T11:39:21;100188.20;;;-7.89;58.56
70250;BME280;57644;48.416;-123.374;2023-02-22T11:41:45;100194.34;;;-8.02;58.80
70250;BME280;57644;48.416;-123.374;2023-02-22T11:44:21;100203.08;;;-7.82;59.06
70250;BME280;57644;48.416;-123.374;2023-02-22T11:46:46;100209.92;;;-7.95;59.02
70250;BME280;57644;48.416;-123.374;2023-02-22T11:49:18;100218.91;;;-7.93;59.73
70250;BME280;57644;48.416;-123.374;2023-02-22T11:52:00;100213.06;;;-7.86;58.51
70250;BME280;57644;48.416;-123.374;2023-02-22T11:54:28;100215.54;;;-7.72;58.77
70250;BME280;57644;48.416;-123.374;2023-02-22T11:56:51;100211.09;;;-7.70;58.91
70250;BME280;57644;48.416;-123.374;2023-02-22T11:59:29;100217.63;;;-7.48;58.20
70250;BME280;57644;48.416;-123.374;2023-02-22T12:01:55;100223.56;;;-7.77;57.89
70250;BME280;57644;48.416;-123.374;2023-02-22T12:04:32;100218.78;;;-7.58;57.73
70250;BME280;57644;48.416;-123.374;2023-02-22T12:06:59;100217.44;;;-7.99;57.57
70250;BME280;57644;48.416;-123.374;2023-02-22T12:09:29;100217.52;;;-8.00;58.29
70250;BME280;57644;48.416;-123.374;2023-02-22T12:12:03;100216.56;;;-7.58;58.65
70250;BME280;57644;48.416;-123.374;2023-02-22T12:14:30;100211.08;;;-8.20;58.16
70250;BME280;57644;48.416;-123.374;2023-02-22T12:17:06;100216.07;;;-7.90;58.23
70250;BME280;57644;48.416;-123.374;2023-02-22T12:19:29;100218.39;;;-7.80;57.14
70250;BME280;57644;48.416;-123.374;2023-02-22T12:21:59;100223.33;;;-7.80;57.02
70250;BME280;57644;48.416;-123.374;2023-02-22T12:24:30;100234.54;;;-8.30;56.03
70250;BME280;57644;48.416;-123.374;2023-02-22T12:27:02;100238.02;;;-7.94;55.81
70250;BME280;57644;48.416;-123.374;2023-02-22T12:29:32;100240.83;;;-8.18;56.21
70250;BME280;57644;48.416;-123.374;2023-02-22T12:32:03;100243.48;;;-8.02;56.37
70250;BME280;57644;48.416;-123.374;2023-02-22T12:34:33;100236.70;;;-7.96;56.42
70250;BME280;57644;48.416;-123.374;2023-02-22T12:37:06;100249.67;;;-8.39;57.07
70250;BME280;57644;48.416;-123.374;2023-02-22T12:39:39;100255.83;;;-7.99;57.57
70250;BME280;57644;48.416;-123.374;2023-02-22T12:42:06;100250.71;;;-7.93;56.94
70250;BME280;57644;48.416;-123.374;2023-02-22T12:44:35;100258.09;;;-7.96;55.45
70250;BME280;57644;48.416;-123.374;2023-02-22T12:47:04;100258.43;;;-7.86;55.85
70250;BME280;57644;48.416;-123.374;2023-02-22T12:49:37;100254.66;;;-7.73;56.07